createdAt,value
2019-04-22T00:02:22.703Z,18.03
2019-04-22T00:05:01.020Z,20.73
2019-04-22T00:07:43.267Z,18.20
2019-04-22T00:10:11.550Z,23.23
2019-04-22T00:12:42.382Z,15.17
2019-04-22T00:15:03.789Z,21.27
2019-04-22T00:17:38.896Z,17.77
2019-04-22T00:20:04.922Z,18.30
2019-04-22T00:22:27.834Z,20.23
2019-04-22T00:25:03.308Z,18.13
2019-04-22T00:27:28.102Z,19.93
2019-04-22T00:30:15.494Z,18.27
2019-04-22T00:32:27.217Z,22.00
2019-04-22T00:37:28.316Z,22.47
2019-04-22T00:39:51.799Z,18.63
2019-04-22T00:42:24.319Z,18.87
2019-04-22T00:44:51.838Z,17.97
2019-04-22T00:47:23.132Z,21.63
2019-04-22T00:54:49.535Z,19.97
2019-04-22T00:57:08.667Z,24.67
2019-04-22T00:59:37.483Z,26.03
2019-04-22T01:02:10.174Z,25.10
2019-04-22T01:04:35.005Z,23.07
2019-04-22T01:07:02.063Z,20.50
2019-04-22T01:09:30.076Z,25.13
2019-04-22T01:11:53.720Z,26.80
2019-04-22T01:14:22.048Z,23.03
2019-04-22T01:16:50.991Z,27.20
2019-04-22T01:19:16.687Z,23.80
2019-04-22T01:21:46.792Z,23.10
2019-04-22T01:24:08.816Z,25.30
2019-04-22T01:26:37.412Z,20.10
2019-04-22T01:28:59.874Z,22.30
2019-04-22T01:31:19.702Z,26.17
2019-04-22T01:33:48.366Z,23.03
2019-04-22T01:36:30.322Z,25.37
2019-04-22T01:38:58.150Z,26.63
2019-04-22T01:41:35.600Z,27.30
2019-04-22T01:44:08.293Z,26.20
2019-04-22T01:46:31.580Z,27.40
2019-04-22T01:48:57.412Z,23.07
2019-04-22T01:51:35.489Z,23.63
2019-04-22T01:53:54.766Z,26.23
2019-04-22T01:56:20.665Z,27.53
2019-04-22T01:58:38.470Z,26.23
2019-04-22T02:01:18.225Z,23.93
2019-04-22T02:03:40.048Z,32.10
2019-04-22T02:06:07.257Z,30.57
2019-04-22T02:08:53.351Z,27.37
2019-04-22T02:11:07.927Z,27.53
2019-04-22T02:13:41.294Z,31.40
2019-04-22T02:15:58.505Z,45.93
2019-04-22T02:18:35.823Z,29.90
2019-04-22T02:20:54.843Z,29.40
2019-04-22T02:26:00.913Z,34.17
2019-04-22T02:36:15.074Z,30.63
2019-04-22T02:38:34.145Z,31.40
2019-04-22T02:41:13.242Z,33.90
2019-04-22T02:46:03.043Z,31.50
2019-04-22T02:48:25.554Z,30.10
2019-04-22T02:50:43.432Z,34.63
2019-04-22T02:53:13.887Z,32.57
2019-04-22T02:55:40.867Z,33.87
2019-04-22T02:58:05.556Z,32.03
2019-04-22T03:00:37.278Z,32.47
2019-04-22T03:05:40.575Z,31.60
2019-04-22T03:08:06.648Z,30.90
2019-04-22T03:10:37.275Z,34.00
2019-04-22T03:12:51.609Z,34.50
2019-04-22T03:15:23.996Z,33.60
2019-04-22T03:17:52.031Z,34.00
2019-04-22T03:20:22.176Z,33.97
2019-04-22T03:22:51.111Z,35.60
2019-04-22T03:37:45.730Z,41.50
2019-04-22T03:42:31.934Z,39.40
2019-04-22T03:45:10.194Z,43.27
2019-04-22T03:59:53.980Z,34.07
2019-04-22T04:02:21.624Z,36.47
2019-04-22T04:07:20.547Z,41.70
2019-04-22T04:14:47.195Z,41.97
2019-04-22T04:20:00.495Z,43.70
2019-04-22T04:21:59.855Z,42.27
2019-04-22T04:24:50.973Z,45.63
2019-04-22T04:29:36.248Z,40.97
2019-04-22T04:32:01.131Z,41.77
2019-04-22T04:34:32.702Z,39.53
2019-04-22T04:36:57.803Z,39.83
2019-04-22T04:41:58.851Z,41.07
2019-04-22T04:44:35.367Z,43.67
2019-04-22T04:46:44.830Z,44.03
2019-04-22T04:49:09.683Z,45.93
2019-04-22T04:52:35.199Z,42.27
2019-04-22T04:54:13.265Z,49.77
2019-04-22T04:56:44.536Z,43.70
2019-04-22T04:59:05.771Z,43.40
2019-04-22T05:04:00.253Z,46.80
2019-04-22T05:06:22.207Z,44.17
2019-04-22T05:11:33.233Z,48.43
2019-04-22T05:13:49.778Z,48.77
2019-04-22T05:18:37.286Z,43.63
2019-04-22T05:23:39.427Z,47.10
2019-04-22T05:26:04.226Z,46.90
2019-04-22T05:28:43.334Z,49.97
2019-04-22T05:31:03.354Z,46.93
2019-04-22T05:33:30.331Z,46.67
2019-04-22T05:35:53.820Z,42.23
2019-04-22T05:38:26.099Z,48.37
2019-04-22T05:40:54.635Z,45.30
2019-04-22T05:43:14.503Z,46.33
2019-04-22T05:45:49.471Z,49.40
2019-04-22T05:48:15.021Z,57.47
2019-04-22T05:50:45.383Z,46.20
2019-04-22T05:53:08.628Z,48.10
2019-04-22T05:55:45.213Z,46.47
2019-04-22T06:01:05.716Z,44.17
2019-04-22T06:03:04.092Z,40.63
2019-04-22T06:05:38.551Z,45.30
2019-04-22T06:08:04.085Z,44.13
2019-04-22T06:10:39.434Z,38.77
2019-04-22T06:13:02.221Z,39.30
2019-04-22T06:15:36.261Z,38.07
2019-04-22T06:18:14.023Z,35.00
2019-04-22T06:20:36.961Z,38.60
2019-04-22T06:23:04.188Z,37.97
2019-04-22T06:25:54.970Z,30.37
2019-04-22T06:28:03.391Z,28.50
2019-04-22T06:30:29.195Z,32.20
2019-04-22T06:33:00.799Z,30.23
2019-04-22T06:38:20.894Z,29.90
2019-04-22T06:40:29.228Z,27.37
2019-04-22T06:42:51.861Z,27.37
2019-04-22T06:45:24.560Z,29.40
2019-04-22T06:50:16.832Z,25.77
2019-04-22T06:52:50.283Z,27.80
2019-04-22T06:55:18.569Z,25.20
2019-04-22T06:57:41.450Z,23.80
2019-04-22T07:00:14.253Z,21.50
2019-04-22T07:02:47.189Z,18.17
2019-04-22T07:05:00.991Z,22.17
2019-04-22T07:07:33.367Z,19.03
2019-04-22T07:10:06.642Z,18.57
2019-04-22T07:14:59.592Z,18.70
2019-04-22T07:17:26.253Z,19.60
2019-04-22T07:20:03.856Z,17.23
2019-04-22T07:22:18.068Z,20.43
2019-04-22T07:24:46.360Z,19.40
2019-04-22T07:32:17.305Z,19.80
2019-04-22T07:34:42.712Z,25.03
2019-04-22T07:39:35.582Z,18.47
2019-04-22T07:41:56.044Z,20.23
2019-04-22T07:44:31.243Z,26.13
2019-04-22T07:47:06.298Z,20.52
2019-04-22T07:49:33.783Z,19.37
2019-04-22T07:51:49.848Z,15.78
2019-04-22T07:54:25.905Z,20.00
2019-04-22T07:57:04.282Z,17.70
2019-04-22T07:59:22.237Z,16.35
2019-04-22T08:01:48.917Z,15.83
2019-04-22T08:04:23.067Z,12.90
2019-04-22T08:06:51.597Z,15.35
2019-04-22T08:09:13.970Z,19.52
2019-04-22T08:11:52.709Z,18.00
2019-04-22T08:14:06.860Z,16.85
2019-04-22T08:16:38.161Z,14.95
2019-04-22T08:19:14.166Z,15.30
2019-04-22T08:21:31.628Z,16.25
2019-04-22T08:24:01.207Z,14.35
2019-04-22T08:26:28.808Z,18.50
2019-04-22T08:28:59.055Z,12.43
2019-04-22T08:31:28.655Z,14.75
2019-04-22T08:34:00.592Z,12.03
2019-04-22T08:38:55.974Z,16.07
2019-04-22T08:41:28.437Z,19.42
2019-04-22T08:44:00.976Z,20.82
2019-04-22T08:46:24.192Z,16.02
2019-04-22T08:48:47.061Z,11.93
2019-04-22T08:51:19.639Z,16.55
2019-04-22T08:53:45.483Z,13.00
2019-04-22T08:58:40.163Z,11.85
2019-04-22T09:01:04.455Z,14.10
2019-04-22T09:03:30.391Z,19.80
2019-04-22T09:06:20.146Z,14.33
2019-04-22T09:08:29.028Z,15.48
2019-04-22T09:10:57.423Z,11.95
2019-04-22T09:13:20.579Z,13.62
2019-04-22T09:15:48.782Z,11.73
2019-04-22T09:18:22.961Z,11.97
2019-04-22T09:20:49.708Z,13.03
2019-04-22T09:23:14.803Z,13.88
2019-04-22T09:25:40.208Z,12.60
2019-04-22T09:28:10.423Z,12.05
2019-04-22T09:30:42.918Z,14.83
2019-04-22T09:33:10.993Z,11.55
2019-04-22T09:35:37.631Z,15.53
2019-04-22T09:38:16.971Z,20.75
2019-04-22T09:40:35.837Z,13.65
2019-04-22T09:43:18.406Z,12.03
2019-04-22T09:45:27.549Z,12.88
2019-04-22T09:48:04.233Z,9.98
2019-04-22T09:50:30.545Z,13.43
2019-04-22T09:52:54.877Z,10.25
2019-04-22T09:55:27.091Z,15.08
2019-04-22T09:57:50.931Z,10.68
2019-04-22T10:02:48.956Z,10.45
2019-04-22T10:05:17.353Z,11.65
2019-04-22T10:07:39.520Z,8.30
2019-04-22T10:10:23.848Z,9.75
2019-04-22T10:12:42.359Z,11.40
2019-04-22T10:14:59.920Z,8.85
2019-04-22T10:17:31.645Z,10.85
2019-04-22T10:20:01.349Z,10.05
2019-04-22T10:22:32.139Z,9.75
2019-04-22T10:24:57.069Z,8.83
2019-04-22T10:27:27.989Z,8.60
2019-04-22T10:30:03.706Z,8.35
2019-04-22T10:32:23.192Z,12.35
2019-04-22T10:34:34.772Z,9.80
2019-04-22T10:36:59.050Z,9.73
2019-04-22T10:39:35.619Z,9.78
2019-04-22T10:41:50.605Z,8.50
2019-04-22T10:44:17.135Z,4.85
2019-04-22T10:46:44.369Z,8.80
2019-04-22T10:49:10.515Z,5.53
2019-04-22T10:51:36.920Z,7.67
2019-04-22T10:54:02.997Z,6.17
2019-04-22T10:56:28.871Z,9.33
2019-04-22T10:58:54.746Z,9.75
2019-04-22T11:01:21.257Z,13.78
2019-04-22T11:03:47.158Z,7.87
2019-04-22T11:06:13.242Z,8.48
2019-04-22T11:08:46.681Z,7.80
2019-04-22T11:11:21.511Z,10.90
2019-04-22T11:13:35.832Z,12.95
2019-04-22T11:16:03.306Z,12.68
2019-04-22T11:18:29.577Z,8.70
2019-04-22T11:20:55.831Z,10.32
2019-04-22T11:23:22.585Z,8.05
2019-04-22T11:25:49.915Z,8.75
2019-04-22T11:28:16.167Z,6.75
2019-04-22T11:30:42.801Z,9.43
2019-04-22T11:33:08.804Z,7.42
2019-04-22T11:35:34.810Z,6.83
2019-04-22T11:38:01.117Z,8.68
2019-04-22T11:40:36.407Z,7.75
2019-04-22T11:42:56.538Z,7.50
2019-04-22T11:45:23.521Z,7.75
2019-04-22T11:47:50.998Z,11.45
2019-04-22T11:50:17.825Z,8.20
2019-04-22T11:52:44.753Z,5.97
2019-04-22T11:55:12.870Z,11.63
2019-04-22T11:57:39.287Z,12.05
2019-04-22T12:00:09.119Z,9.50
2019-04-22T12:02:36.533Z,12.25
2019-04-22T12:05:06.090Z,18.02
2019-04-22T12:07:34.820Z,7.78
2019-04-22T12:09:59.863Z,9.95
2019-04-22T12:12:27.876Z,8.88
2019-04-22T12:14:54.422Z,7.95
2019-04-22T12:17:20.440Z,13.45
2019-04-22T12:19:46.441Z,8.53
2019-04-22T12:22:13.294Z,12.85
2019-04-22T12:24:40.555Z,8.83
2019-04-22T12:27:06.797Z,9.88
2019-04-22T12:29:33.204Z,9.85
2019-04-22T12:31:59.693Z,12.43
2019-04-22T12:34:25.833Z,7.78
2019-04-22T12:36:52.257Z,9.40
2019-04-22T12:39:18.157Z,10.50
2019-04-22T12:41:44.399Z,10.40
2019-04-22T12:44:11.702Z,9.98
2019-04-22T12:46:38.402Z,9.28
2019-04-22T12:49:04.593Z,16.35
2019-04-22T12:51:31.327Z,10.53
2019-04-22T12:53:57.329Z,7.42
2019-04-22T12:56:25.885Z,9.13
2019-04-22T12:58:51.901Z,6.62
2019-04-22T13:01:19.075Z,8.23
2019-04-22T13:03:50.157Z,5.10
2019-04-22T13:06:17.608Z,7.47
2019-04-22T13:08:43.964Z,5.62
2019-04-22T13:11:15.658Z,14.07
2019-04-22T13:13:39.046Z,6.20
2019-04-22T13:16:06.862Z,5.90
2019-04-22T13:18:40.083Z,9.15
2019-04-22T13:21:10.874Z,6.65
2019-04-22T13:23:36.980Z,5.42
2019-04-22T13:26:05.050Z,5.22
2019-04-22T13:28:31.506Z,6.45
2019-04-22T13:31:01.297Z,7.97
2019-04-22T13:33:28.490Z,9.83
2019-04-22T13:35:54.617Z,5.85
2019-04-22T13:38:20.530Z,6.58
2019-04-22T13:41:02.460Z,8.80
2019-04-22T13:43:14.200Z,10.30
2019-04-22T13:45:40.761Z,9.25
2019-04-22T13:48:24.100Z,6.95
2019-04-22T13:51:11.025Z,10.82
2019-04-22T13:56:07.418Z,7.40
2019-04-22T13:58:12.401Z,8.13
2019-04-22T14:00:31.886Z,9.03
2019-04-22T14:03:16.559Z,4.67
2019-04-22T14:05:44.888Z,7.27
2019-04-22T14:08:12.668Z,9.03
2019-04-22T14:10:38.700Z,7.80
2019-04-22T14:13:05.732Z,4.85
2019-04-22T14:15:32.268Z,9.30
2019-04-22T14:17:58.919Z,10.65
2019-04-22T14:20:28.759Z,11.78
2019-04-22T14:22:54.778Z,6.58
2019-04-22T14:25:20.832Z,6.05
2019-04-22T14:27:54.435Z,6.33
2019-04-22T14:30:15.100Z,9.68
2019-04-22T14:32:42.117Z,4.10
2019-04-22T14:35:11.220Z,6.75
2019-04-22T14:37:38.502Z,5.33
2019-04-22T14:40:09.242Z,8.85
2019-04-22T14:42:51.725Z,5.05
2019-04-22T14:45:35.780Z,4.60
2019-04-22T14:47:54.040Z,4.58
2019-04-22T14:50:17.564Z,5.20
2019-04-22T14:52:46.027Z,6.37
2019-04-22T14:55:03.603Z,6.90
2019-04-22T14:57:21.360Z,14.45
2019-04-22T14:59:48.264Z,10.98
2019-04-22T15:02:14.345Z,4.65
2019-04-22T15:04:41.574Z,4.60
2019-04-22T15:07:08.848Z,4.80
2019-04-22T15:09:34.872Z,5.20
2019-04-22T15:12:11.089Z,10.00
2019-04-22T15:14:29.874Z,6.72
2019-04-22T15:17:07.016Z,5.20
2019-04-22T15:19:35.853Z,5.50
2019-04-22T15:22:03.090Z,10.00
2019-04-22T15:24:29.538Z,6.00
2019-04-22T15:26:56.587Z,10.10
2019-04-22T15:29:23.194Z,6.78
2019-04-22T15:31:51.451Z,6.08
2019-04-22T15:34:18.599Z,6.22
2019-04-22T15:36:44.530Z,6.45
2019-04-22T15:39:11.231Z,10.93
2019-04-22T15:41:38.690Z,6.03
2019-04-22T15:44:05.964Z,4.85
2019-04-22T15:46:32.143Z,9.28
2019-04-22T15:48:58.051Z,5.85
2019-04-22T15:51:24.718Z,7.62
2019-04-22T15:53:51.948Z,10.48
2019-04-22T15:56:18.782Z,8.30
2019-04-22T15:58:46.078Z,7.67
2019-04-22T16:01:19.279Z,13.95
2019-04-22T16:03:40.636Z,7.87
2019-04-22T16:06:08.107Z,18.27
2019-04-22T16:08:37.335Z,11.70
2019-04-22T16:11:02.194Z,6.75
2019-04-22T16:13:34.003Z,6.95
2019-04-22T16:15:58.568Z,11.35
2019-04-22T16:18:26.311Z,9.93
2019-04-22T16:20:52.611Z,8.75
2019-04-22T16:23:23.985Z,6.62
2019-04-22T16:25:51.290Z,9.30
2019-04-22T16:28:17.497Z,6.58
2019-04-22T16:30:45.448Z,10.35
2019-04-22T16:33:15.278Z,6.85
2019-04-22T16:35:42.641Z,11.10
2019-04-22T16:38:08.761Z,6.60
2019-04-22T16:40:34.891Z,6.80
2019-04-22T16:43:04.190Z,8.80
2019-04-22T16:45:29.725Z,7.75
2019-04-22T16:47:55.715Z,7.85
2019-04-22T16:50:23.026Z,12.90
2019-04-22T16:52:50.105Z,8.23
2019-04-22T16:55:16.966Z,5.58
2019-04-22T16:57:44.101Z,7.33
2019-04-22T17:00:11.320Z,5.75
2019-04-22T17:02:58.656Z,8.45
2019-04-22T17:05:43.443Z,4.78
2019-04-22T17:08:10.207Z,9.50
2019-04-22T17:10:37.711Z,5.40
2019-04-22T17:13:11.240Z,6.47
2019-04-22T17:15:33.464Z,7.05
2019-04-22T17:18:01.293Z,6.42
2019-04-22T17:20:27.205Z,7.22
2019-04-22T17:22:53.513Z,7.40
2019-04-22T17:25:20.537Z,12.07
2019-04-22T17:27:47.509Z,10.00
2019-04-22T17:30:15.053Z,7.22
2019-04-22T17:32:45.014Z,6.53
2019-04-22T17:35:12.736Z,8.40
2019-04-22T17:37:47.249Z,6.22
2019-04-22T17:40:37.449Z,8.93
2019-04-22T17:43:07.138Z,7.40
2019-04-22T17:45:49.349Z,6.33
2019-04-22T17:48:31.151Z,7.60
2019-04-22T17:51:10.547Z,5.25
2019-04-22T17:53:33.451Z,4.55
2019-04-22T17:56:02.522Z,5.10
2019-04-22T17:58:27.659Z,15.68
2019-04-22T18:00:55.523Z,7.80
2019-04-22T18:03:12.756Z,13.55
2019-04-22T18:05:34.755Z,4.75
2019-04-22T18:08:17.706Z,5.25
2019-04-22T18:10:40.638Z,3.98
2019-04-22T18:13:23.451Z,10.68
2019-04-22T18:15:45.137Z,6.75
2019-04-22T18:18:12.789Z,10.50
2019-04-22T18:20:30.487Z,7.17
2019-04-22T18:22:55.415Z,10.40
2019-04-22T18:25:29.536Z,4.25
2019-04-22T18:28:07.432Z,3.17
2019-04-22T18:30:27.464Z,4.25
2019-04-22T18:33:01.969Z,8.78
2019-04-22T18:35:32.332Z,3.05
2019-04-22T18:38:03.321Z,5.28
2019-04-22T18:40:34.055Z,3.37
2019-04-22T18:42:58.832Z,4.47
2019-04-22T18:47:52.142Z,5.83
2019-04-22T18:50:34.004Z,4.17
2019-04-22T18:53:16.084Z,6.37
2019-04-22T18:55:41.380Z,4.80
2019-04-22T18:58:08.932Z,7.08
2019-04-22T19:00:29.394Z,5.87
2019-04-22T19:03:01.947Z,3.33
2019-04-22T19:05:42.731Z,5.67
2019-04-22T19:08:30.408Z,8.45
2019-04-22T19:11:17.598Z,5.15
2019-04-22T19:14:10.156Z,5.83
2019-04-22T19:16:51.904Z,5.95
2019-04-22T19:21:58.839Z,3.37
2019-04-22T19:24:29.850Z,5.15
2019-04-22T19:27:02.120Z,4.92
2019-04-22T19:29:32.308Z,7.78
2019-04-22T19:31:57.356Z,6.40
2019-04-22T19:34:25.668Z,7.40
2019-04-22T19:36:51.256Z,7.08
2019-04-22T19:39:17.305Z,4.55
2019-04-22T19:41:53.681Z,3.98
2019-04-22T19:44:14.536Z,9.43
2019-04-22T19:47:21.231Z,4.08
2019-04-22T19:49:36.423Z,4.17
2019-04-22T19:52:05.962Z,5.33
2019-04-22T19:54:26.289Z,5.33
2019-04-22T19:56:45.614Z,6.60
2019-04-22T19:59:16.394Z,6.45
2019-04-22T20:01:58.680Z,5.20
2019-04-22T20:04:43.030Z,9.05
2019-04-22T20:06:57.624Z,7.97
2019-04-22T20:09:31.610Z,4.72
2019-04-22T20:11:57.642Z,12.55
2019-04-22T20:14:21.783Z,4.30
2019-04-22T20:16:46.645Z,6.90
2019-04-22T20:19:25.377Z,13.93
2019-04-22T20:21:49.466Z,4.25
2019-04-22T20:24:05.731Z,10.65
2019-04-22T20:26:50.095Z,5.12
2019-04-22T20:29:19.099Z,7.12
2019-04-22T20:31:44.229Z,8.50
2019-04-22T20:34:09.885Z,6.47
2019-04-22T20:36:55.393Z,6.35
2019-04-22T20:38:59.266Z,7.42
2019-04-22T20:41:28.304Z,12.10
2019-04-22T20:43:56.534Z,5.80
2019-04-22T20:46:23.847Z,5.65
2019-04-22T20:48:56.918Z,9.98
2019-04-22T20:51:24.320Z,4.12
2019-04-22T20:53:49.059Z,6.05
2019-04-22T20:56:17.501Z,3.75
2019-04-22T20:58:45.195Z,9.40
2019-04-22T21:01:03.853Z,7.67
2019-04-22T21:03:29.391Z,6.72
2019-04-22T21:06:05.991Z,6.33
2019-04-22T21:08:38.638Z,6.60
2019-04-22T21:11:04.209Z,4.25
2019-04-22T21:13:27.853Z,4.83
2019-04-22T21:16:09.399Z,4.50
2019-04-22T21:18:27.835Z,5.92
2019-04-22T21:21:02.754Z,8.23
2019-04-22T21:23:23.200Z,3.95
2019-04-22T21:25:58.041Z,4.25
2019-04-22T21:28:28.902Z,3.77
2019-04-22T21:30:53.893Z,4.90
2019-04-22T21:33:16.198Z,6.80
2019-04-22T21:35:59.573Z,6.72
2019-04-22T21:38:15.163Z,5.08
2019-04-22T21:40:43.846Z,10.25
2019-04-22T21:43:16.237Z,8.03
2019-04-22T21:45:32.299Z,3.25
2019-04-22T21:48:20.120Z,3.52
2019-04-22T21:53:06.619Z,5.53
2019-04-22T21:55:37.896Z,5.08
2019-04-22T21:58:12.199Z,10.18
2019-04-22T22:00:55.766Z,6.00
2019-04-22T22:03:19.348Z,5.65
2019-04-22T22:05:38.192Z,4.22
2019-04-22T22:08:02.816Z,6.53
2019-04-22T22:10:43.433Z,4.00
2019-04-22T22:13:06.377Z,6.03
2019-04-22T22:15:30.281Z,14.33
2019-04-22T22:17:58.628Z,6.47
2019-04-22T22:20:22.789Z,5.08
2019-04-22T22:23:00.553Z,3.47
2019-04-22T22:25:24.099Z,3.90
2019-04-22T22:27:50.842Z,3.97
2019-04-22T22:30:45.771Z,4.43
2019-04-22T22:32:56.437Z,4.43
2019-04-22T22:35:20.701Z,3.43
2019-04-22T22:37:50.199Z,2.33
2019-04-22T22:40:07.487Z,9.00
2019-04-22T22:42:35.810Z,3.30
2019-04-22T22:45:05.962Z,8.40
2019-04-22T22:47:39.244Z,7.17
2019-04-22T22:50:09.075Z,7.03
2019-04-22T22:52:51.670Z,5.13
2019-04-22T22:55:03.886Z,3.70
2019-04-22T23:00:01.775Z,11.07
2019-04-22T23:02:28.084Z,8.60
2019-04-22T23:04:57.499Z,4.03
2019-04-22T23:07:32.278Z,5.60
2019-04-22T23:09:58.522Z,3.63
2019-04-22T23:12:30.765Z,4.83
2019-04-22T23:14:49.754Z,11.13
2019-04-22T23:17:03.201Z,7.03
2019-04-22T23:19:23.982Z,4.10
2019-04-22T23:21:54.471Z,2.80
2019-04-22T23:24:52.253Z,8.33
2019-04-22T23:27:29.359Z,6.83
2019-04-22T23:29:49.454Z,9.37
2019-04-22T23:32:22.693Z,12.47
2019-04-22T23:34:55.955Z,4.00
2019-04-22T23:37:21.689Z,9.90
2019-04-22T23:40:02.207Z,5.33
2019-04-22T23:42:39.757Z,3.43
2019-04-22T23:44:49.595Z,5.77
2019-04-22T23:47:14.965Z,10.97
2019-04-22T23:49:47.066Z,3.17
2019-04-22T23:52:21.178Z,5.57
2019-04-22T23:55:04.556Z,6.47
2019-04-22T23:57:31.343Z,3.70
2019-04-22T23:59:57.211Z,2.90
